Mombetsu, Japan

8:48 PM JST on February 20, 2017 (GMT +0900)
Engaru National Highway | | Change Station

Elev 626 ft 44.00 °N, 143.33 °E | Updated 41 seconds ago

Snow
Snow
19.8 °F
Feels Like 20 °F
N
0.6
Wind Variable Wind from East
Gusts 3.1 mph

Today
High -- | Low -- °F
--% Chance of Precip.
Yesterday
High -- | Low -- °F
Precip. -- in
Pressure 29.59 in
Visibility -9999.0 miles
Clouds Scattered Clouds 1000 ft
Mostly Cloudy 1500 ft
Mostly Cloudy 2000 ft
Windchill 20 °F
Dew Point 17 °F
Humidity 88%
Rainfall 0.04 in
Snow Depth Not available.
6:18 AM 5:01 PM
Waning Crescent, 34% visible
SPECI RJCM 201134Z 02004KT 3100 -SHSN SCT010 BKN015 BKN020 M06/M08 Q1002 RMK 3ST010 5ST015 7CU020 A2959
Pressure 29.59 in
Visibility -9999.0 miles
Clouds Scattered Clouds 1000 ft
Mostly Cloudy 1500 ft
Mostly Cloudy 2000 ft
Windchill 20 °F
Dew Point 17 °F
Humidity 88%
Rainfall 0.04 in
Snow Depth Not available.
6:18 AM 5:01 PM
Waning Crescent, 34% visible
SPECI RJCM 201134Z 02004KT 3100 -SHSN SCT010 BKN015 BKN020 M06/M08 Q1002 RMK 3ST010 5ST015 7CU020 A2959

Get Your Daily Forecast Email!

Thanks for signing up!

Be on the lookout for a verification email in your inbox.

You'll start receiving the daily forecast at 8 AM.

×

10-Day Weather Forecast

No radar image for this location.
×

Almanac

Astronomy

Feb. 20, 2017 Rise Set
Actual Time
Civil Twilight
Nautical Twilight
Astronomical Twilight
Moon
Length of Visible Light
Length of Day
Tomorrow will be .
, % of the Moon is Illuminated

Today's Extremes

Country Highs Country Lows

Community

WunderPhotos

Upload Photos

1,962,540 photos uploaded!

WunderBlog® & News

Nearby

Air Quality

  Air Quality AQ Index Pollutant
Not available.

Snow Depth

Station Depth Elevation

Earthquake Activity

City Distance Mag. Time & Date
Minimum magnitude displayed is 2.5.

Coastal Water Temperatures

Place Temperature

Stations

Nearby Weather Stations

Station Location Temp. Windchill Dew Point Humidity Wind Precip. Elev Updated Type